createdAt,value
2022-12-11T00:00:57.825Z,-0.40
2022-12-11T00:03:26.126Z,-0.30
2022-12-11T00:05:54.458Z,-0.30
2022-12-11T00:08:22.806Z,-0.20
2022-12-11T00:10:51.252Z,-0.30
2022-12-11T00:13:19.523Z,-0.30
2022-12-11T00:15:49.203Z,-0.20
2022-12-11T00:18:17.523Z,-0.10
2022-12-11T00:20:45.878Z,-0.10
2022-12-11T00:23:14.421Z,-0.20
2022-12-11T00:25:45.023Z,-0.20
2022-12-11T00:28:13.320Z,-0.20
2022-12-11T00:30:42.278Z,-0.30
2022-12-11T00:33:14.512Z,-0.40
2022-12-11T00:35:43.797Z,-0.40
2022-12-11T00:38:15.398Z,-0.40
2022-12-11T00:40:44.012Z,-0.40
2022-12-11T00:43:12.328Z,-0.40
2022-12-11T00:45:41.948Z,-0.50
2022-12-11T00:48:11.956Z,-0.50
2022-12-11T00:50:40.326Z,-0.40
2022-12-11T00:53:09.046Z,-0.40
2022-12-11T00:55:38.497Z,-0.40
2022-12-11T00:58:07.320Z,-0.40
2022-12-11T01:00:35.721Z,-0.30
2022-12-11T01:03:04.167Z,-0.30
2022-12-11T01:05:34.454Z,-0.30
2022-12-11T01:08:02.728Z,-0.20
2022-12-11T01:10:31.109Z,-0.20
2022-12-11T01:13:00.519Z,-0.20
2022-12-11T01:15:30.050Z,-0.10
2022-12-11T01:17:58.345Z,-0.10
2022-12-11T01:20:26.943Z,0.00
2022-12-11T01:22:57.764Z,0.00
2022-12-11T01:25:26.173Z,0.00
2022-12-11T01:27:55.043Z,-0.10
2022-12-11T01:30:24.694Z,-0.20
2022-12-11T01:32:53.467Z,-0.30
2022-12-11T01:35:21.948Z,-0.40
2022-12-11T01:37:50.520Z,-0.40
2022-12-11T01:40:20.813Z,-0.50
2022-12-11T01:42:49.145Z,-0.50
2022-12-11T01:45:36.485Z,-0.50
2022-12-11T01:48:09.036Z,-0.40
2022-12-11T01:50:41.064Z,-0.40
2022-12-11T01:53:12.009Z,-0.40
2022-12-11T01:55:41.673Z,-0.50
2022-12-11T01:58:10.387Z,-0.50
2022-12-11T02:00:38.673Z,-0.50
2022-12-11T02:03:06.918Z,-0.50
2022-12-11T02:05:36.119Z,-0.50
2022-12-11T02:08:04.408Z,-0.40
2022-12-11T02:10:43.925Z,-0.40
2022-12-11T02:13:15.421Z,-0.50
2022-12-11T02:15:49.104Z,-0.50
2022-12-11T02:18:22.512Z,-0.50
2022-12-11T02:20:55.970Z,-0.40
2022-12-11T02:23:53.417Z,-0.40
2022-12-11T02:26:52.122Z,-0.30
2022-12-11T02:29:24.106Z,-0.30
2022-12-11T02:31:54.868Z,-0.30
2022-12-11T02:34:26.066Z,-0.30
2022-12-11T02:36:56.752Z,-0.30
2022-12-11T02:39:25.033Z,-0.40
2022-12-11T02:41:53.487Z,-0.30
2022-12-11T02:44:26.086Z,-0.30
2022-12-11T02:46:54.748Z,-0.30
2022-12-11T02:49:23.102Z,-0.30
2022-12-11T02:51:51.397Z,-0.30
2022-12-11T02:54:21.783Z,-0.30
2022-12-11T02:56:52.751Z,-0.40
2022-12-11T02:59:27.305Z,-0.40
2022-12-11T03:01:55.591Z,-0.50
2022-12-11T03:04:24.955Z,-0.60
2022-12-11T03:06:55.570Z,-0.60
2022-12-11T03:09:23.837Z,-0.50
2022-12-11T03:11:52.218Z,-0.50
2022-12-11T03:14:20.491Z,-0.50
2022-12-11T03:16:55.301Z,-0.40
2022-12-11T03:19:29.217Z,-0.40
2022-12-11T03:22:01.573Z,-0.30
2022-12-11T03:24:32.122Z,-0.30
2022-12-11T03:27:04.500Z,-0.30
2022-12-11T03:29:38.734Z,-0.30
2022-12-11T03:32:10.211Z,-0.40
2022-12-11T03:34:42.913Z,-0.40
2022-12-11T03:37:11.475Z,-0.40
2022-12-11T03:39:41.762Z,-0.40
2022-12-11T03:42:12.853Z,-0.30
2022-12-11T03:44:41.132Z,-0.30
2022-12-11T03:47:10.786Z,-0.20
2022-12-11T03:49:41.539Z,-0.20
2022-12-11T03:52:09.998Z,-0.20
2022-12-11T03:54:38.299Z,-0.30
2022-12-11T03:57:08.123Z,-0.30
2022-12-11T03:59:36.408Z,-0.40
2022-12-11T04:02:10.780Z,-0.40
2022-12-11T04:04:41.342Z,-0.40
2022-12-11T04:07:09.711Z,-0.40
2022-12-11T04:09:38.185Z,-0.30
2022-12-11T04:12:06.825Z,-0.30
2022-12-11T04:14:52.363Z,-0.20
2022-12-11T04:17:34.539Z,-0.20
2022-12-11T04:20:22.206Z,-0.20
2022-12-11T04:23:07.830Z,-0.20
2022-12-11T04:25:36.100Z,-0.30
2022-12-11T04:28:04.506Z,-0.30
2022-12-11T04:30:34.530Z,-0.30
2022-12-11T04:33:02.926Z,-0.20
2022-12-11T04:35:32.674Z,-0.30
2022-12-11T04:38:01.077Z,-0.30
2022-12-11T04:40:29.359Z,-0.20
2022-12-11T04:42:57.924Z,-0.30
2022-12-11T04:45:26.285Z,-0.20
2022-12-11T04:47:54.614Z,-0.20
2022-12-11T04:50:22.901Z,-0.30
2022-12-11T04:52:55.252Z,-0.30
2022-12-11T04:55:23.470Z,-0.30
2022-12-11T04:57:51.692Z,-0.20
2022-12-11T05:00:20.211Z,-0.30
2022-12-11T05:02:48.518Z,-0.30
2022-12-11T05:05:16.868Z,-0.30
2022-12-11T05:07:45.518Z,-0.40
2022-12-11T05:10:15.232Z,-0.40
2022-12-11T05:12:43.579Z,-0.40
2022-12-11T05:15:12.280Z,-0.40
2022-12-11T05:17:40.686Z,-0.40
2022-12-11T05:20:10.562Z,-0.40
2022-12-11T05:22:39.017Z,-0.40
2022-12-11T05:25:09.562Z,-0.40
2022-12-11T05:27:39.634Z,-0.40
2022-12-11T05:30:10.325Z,-0.40
2022-12-11T05:32:38.647Z,-0.40
2022-12-11T05:35:07.999Z,-0.40
2022-12-11T05:37:36.485Z,-0.50
2022-12-11T05:40:06.317Z,-0.60
2022-12-11T05:42:34.589Z,-0.60
2022-12-11T05:45:04.928Z,-0.60
2022-12-11T05:47:33.268Z,-0.70
2022-12-11T05:50:01.621Z,-0.70
2022-12-11T05:52:30.010Z,-0.80
2022-12-11T05:54:58.252Z,-0.80
2022-12-11T05:57:26.575Z,-0.80
2022-12-11T05:59:54.863Z,-0.80
2022-12-11T06:02:24.628Z,-0.80
2022-12-11T06:04:52.990Z,-0.80
2022-12-11T06:07:21.249Z,-0.70
2022-12-11T06:09:49.564Z,-0.70
2022-12-11T06:12:17.810Z,-0.60
2022-12-11T06:14:46.173Z,-0.70
2022-12-11T06:17:14.391Z,-0.60
2022-12-11T06:19:44.022Z,-0.60
2022-12-11T06:22:12.279Z,-0.70
2022-12-11T06:24:41.091Z,-0.70
2022-12-11T06:27:09.362Z,-0.70
2022-12-11T06:29:37.618Z,-0.70
2022-12-11T06:32:06.928Z,-0.80
2022-12-11T06:34:35.246Z,-0.90
2022-12-11T06:37:04.984Z,-0.90
2022-12-11T06:39:33.482Z,-1.00
2022-12-11T06:42:01.729Z,-0.90
2022-12-11T06:44:30.166Z,-0.90
2022-12-11T06:46:58.493Z,-0.90
2022-12-11T06:49:26.856Z,-1.00
2022-12-11T06:51:55.152Z,-1.00
2022-12-11T06:54:28.335Z,-1.00
2022-12-11T06:56:56.628Z,-1.10
2022-12-11T06:59:26.113Z,-1.20
2022-12-11T07:01:54.478Z,-1.20
2022-12-11T07:04:24.684Z,-1.30
2022-12-11T07:06:53.349Z,-1.30
2022-12-11T07:09:22.866Z,-1.40
2022-12-11T07:11:52.810Z,-1.40
2022-12-11T07:14:21.316Z,-1.40
2022-12-11T07:16:49.733Z,-1.40
2022-12-11T07:19:18.055Z,-1.40
2022-12-11T07:21:46.730Z,-1.30
2022-12-11T07:24:15.075Z,-1.40
2022-12-11T07:26:43.620Z,-1.40
2022-12-11T07:29:13.330Z,-1.40
2022-12-11T07:31:41.679Z,-1.40
2022-12-11T07:34:12.542Z,-1.50
2022-12-11T07:36:40.872Z,-1.40
2022-12-11T07:39:09.575Z,-1.50
2022-12-11T07:41:37.773Z,-1.50
2022-12-11T07:44:06.621Z,-1.50
2022-12-11T07:46:36.290Z,-1.60
2022-12-11T07:49:05.975Z,-1.50
2022-12-11T07:51:35.734Z,-1.60
2022-12-11T07:54:05.626Z,-1.50
2022-12-11T07:56:34.063Z,-1.60
2022-12-11T07:59:02.550Z,-1.60
2022-12-11T08:01:32.051Z,-1.70
2022-12-11T08:04:01.747Z,-1.70
2022-12-11T08:06:31.285Z,-1.70
2022-12-11T08:09:00.751Z,-1.70
2022-12-11T08:11:29.360Z,-1.70
2022-12-11T08:13:57.690Z,-1.70
2022-12-11T08:16:26.093Z,-1.70
2022-12-11T08:18:54.436Z,-1.70
2022-12-11T08:21:25.540Z,-1.60
2022-12-11T08:23:54.728Z,-1.60
2022-12-11T08:26:24.522Z,-1.60
2022-12-11T08:28:52.816Z,-1.60
2022-12-11T08:31:22.856Z,-1.60
2022-12-11T08:33:51.457Z,-1.60
2022-12-11T08:36:21.200Z,-1.50
2022-12-11T08:38:51.002Z,-1.40
2022-12-11T08:41:20.651Z,-1.40
2022-12-11T08:43:49.368Z,-1.40
2022-12-11T08:46:17.761Z,-1.30
2022-12-11T08:48:46.078Z,-1.30
2022-12-11T08:51:15.872Z,-1.20
2022-12-11T08:53:44.326Z,-1.20
2022-12-11T08:56:15.656Z,-1.20
2022-12-11T08:58:44.001Z,-1.30
2022-12-11T09:01:13.864Z,-1.30
2022-12-11T09:03:42.280Z,-1.30
2022-12-11T09:06:12.466Z,-1.30
2022-12-11T09:08:40.982Z,-1.20
2022-12-11T09:11:10.415Z,-1.30
2022-12-11T09:13:40.721Z,-1.30
2022-12-11T09:16:11.101Z,-1.20
2022-12-11T09:18:39.651Z,-1.20
2022-12-11T09:21:09.644Z,-1.10
2022-12-11T09:23:38.296Z,-1.10
2022-12-11T09:26:07.018Z,-1.00
2022-12-11T09:28:36.814Z,-1.00
2022-12-11T09:31:11.356Z,-1.00
2022-12-11T09:33:39.766Z,-1.10
2022-12-11T09:36:09.232Z,-1.10
2022-12-11T09:38:37.505Z,-1.10
2022-12-11T09:41:22.318Z,-1.10
2022-12-11T09:43:53.289Z,-1.10
2022-12-11T09:46:24.834Z,-1.10
2022-12-11T09:48:53.688Z,-1.00
2022-12-11T09:51:25.196Z,-1.00
2022-12-11T09:53:53.469Z,-0.90
2022-12-11T09:56:26.354Z,-1.00
2022-12-11T09:59:03.570Z,-1.00
2022-12-11T10:01:39.466Z,-0.90
2022-12-11T10:04:37.717Z,-1.00
2022-12-11T10:07:13.055Z,-1.00
2022-12-11T10:09:49.002Z,-1.00
2022-12-11T10:12:27.919Z,-1.00
2022-12-11T10:15:27.814Z,-1.00
2022-12-11T10:18:04.395Z,-1.00
2022-12-11T10:20:36.492Z,-0.90
2022-12-11T10:23:05.821Z,-0.90
2022-12-11T10:25:36.572Z,-0.90
2022-12-11T10:28:13.310Z,-0.80
2022-12-11T10:30:45.310Z,-0.70
2022-12-11T10:33:23.395Z,-0.70
2022-12-11T10:35:53.017Z,-0.70
2022-12-11T10:38:28.897Z,-0.70
2022-12-11T10:40:59.222Z,-0.70
2022-12-11T10:43:51.659Z,-0.80
2022-12-11T10:46:22.058Z,-0.90
2022-12-11T10:48:54.149Z,-1.00
2022-12-11T10:51:24.831Z,-1.10
2022-12-11T10:53:53.737Z,-1.10
2022-12-11T10:56:27.591Z,-1.20
2022-12-11T10:58:55.937Z,-1.20
2022-12-11T11:01:25.353Z,-1.20
2022-12-11T11:03:58.431Z,-1.10
2022-12-11T11:06:27.378Z,-1.10
2022-12-11T11:08:57.457Z,-1.00
2022-12-11T11:11:29.452Z,-1.00
2022-12-11T11:14:18.448Z,-0.90
2022-12-11T11:16:47.809Z,-0.80
2022-12-11T11:19:23.345Z,-0.80
2022-12-11T11:21:54.284Z,-0.80
2022-12-11T11:24:31.284Z,-0.80
2022-12-11T11:27:14.973Z,-0.80
2022-12-11T11:29:46.612Z,-0.80
2022-12-11T11:32:20.157Z,-0.80
2022-12-11T11:34:49.777Z,-0.80
2022-12-11T11:37:26.357Z,-0.80
2022-12-11T11:39:56.630Z,-0.70
2022-12-11T11:42:29.059Z,-0.60
2022-12-11T11:45:02.293Z,-0.40
2022-12-11T11:47:35.283Z,-0.40
2022-12-11T11:50:08.546Z,-0.30
2022-12-11T11:52:40.171Z,-0.30
2022-12-11T11:55:10.847Z,-0.30
2022-12-11T11:57:43.524Z,-0.30
2022-12-11T12:00:21.338Z,-0.30
2022-12-11T12:02:51.170Z,-0.20
2022-12-11T12:05:25.230Z,-0.20
2022-12-11T12:08:03.656Z,-0.30
2022-12-11T12:10:36.024Z,-0.30
2022-12-11T12:13:23.864Z,-0.20
2022-12-11T12:15:57.933Z,-0.20
2022-12-11T12:18:36.365Z,-0.10
2022-12-11T12:21:12.358Z,-0.10
2022-12-11T12:23:53.832Z,0.00
2022-12-11T12:26:27.044Z,0.00
2022-12-11T12:29:04.273Z,0.00
2022-12-11T12:31:54.784Z,-0.10
2022-12-11T12:34:32.760Z,-0.20
2022-12-11T12:37:09.071Z,-0.20
2022-12-11T12:39:42.989Z,-0.10
2022-12-11T12:42:19.362Z,0.00
2022-12-11T12:44:51.946Z,0.00
2022-12-11T12:47:20.259Z,0.00
2022-12-11T12:49:50.096Z,0.10
2022-12-11T12:52:22.047Z,0.10
2022-12-11T12:55:12.363Z,0.20
2022-12-11T12:57:40.869Z,0.20
2022-12-11T13:00:13.484Z,0.30
2022-12-11T13:02:50.285Z,0.30
2022-12-11T13:05:22.384Z,0.30
2022-12-11T13:07:54.774Z,0.40
2022-12-11T13:10:30.024Z,0.40
2022-12-11T13:12:58.289Z,0.30
2022-12-11T13:15:36.133Z,0.30
2022-12-11T13:18:06.173Z,0.20
2022-12-11T13:20:34.895Z,0.10
2022-12-11T13:23:32.205Z,0.00
2022-12-11T13:26:01.974Z,-0.10
2022-12-11T13:28:47.135Z,-0.10
2022-12-11T13:31:35.474Z,-0.20
2022-12-11T13:34:18.393Z,0.00
2022-12-11T13:36:50.588Z,0.10
2022-12-11T13:39:21.169Z,0.00
2022-12-11T13:41:53.262Z,0.00
2022-12-11T13:44:25.614Z,0.10
2022-12-11T13:46:54.445Z,0.10
2022-12-11T13:49:25.192Z,0.00
2022-12-11T13:51:58.036Z,0.00
2022-12-11T13:54:28.194Z,0.10
2022-12-11T13:57:04.927Z,0.00
2022-12-11T13:59:36.115Z,-0.10
2022-12-11T14:02:14.506Z,0.00
2022-12-11T14:04:42.794Z,0.00
2022-12-11T14:07:11.141Z,0.10
2022-12-11T14:09:43.993Z,0.10
2022-12-11T14:12:18.349Z,0.10
2022-12-11T14:14:48.228Z,0.10
2022-12-11T14:17:24.125Z,0.10
2022-12-11T14:19:52.415Z,0.10
2022-12-11T14:22:22.677Z,0.10
2022-12-11T14:24:53.437Z,0.10
2022-12-11T14:27:22.248Z,0.00
2022-12-11T14:29:50.578Z,0.00
2022-12-11T14:32:22.058Z,0.00
2022-12-11T14:34:50.629Z,0.00
2022-12-11T14:37:19.433Z,0.00
2022-12-11T14:39:51.432Z,0.00
2022-12-11T14:42:21.667Z,-0.10
2022-12-11T14:44:51.456Z,-0.10
2022-12-11T14:47:21.423Z,0.00
2022-12-11T14:49:52.518Z,0.00
2022-12-11T14:52:22.318Z,0.00
2022-12-11T14:54:52.658Z,0.00
2022-12-11T14:57:24.478Z,0.00
2022-12-11T14:59:53.530Z,0.10
2022-12-11T15:02:26.163Z,0.00
2022-12-11T15:05:16.755Z,0.00
2022-12-11T15:07:53.903Z,0.00
2022-12-11T15:10:31.237Z,0.00
2022-12-11T15:13:01.115Z,0.00
2022-12-11T15:15:29.956Z,-0.10
2022-12-11T15:17:58.261Z,-0.10
2022-12-11T15:20:29.547Z,-0.10
2022-12-11T15:22:59.813Z,-0.10
2022-12-11T15:25:29.549Z,-0.10
2022-12-11T15:28:00.566Z,-0.10
2022-12-11T15:30:34.750Z,-0.10
2022-12-11T15:33:22.136Z,-0.10
2022-12-11T15:36:02.531Z,0.00
2022-12-11T15:38:34.189Z,0.00
2022-12-11T15:41:03.166Z,0.00
2022-12-11T15:43:35.674Z,-0.10
2022-12-11T15:46:04.493Z,-0.10
2022-12-11T15:48:32.796Z,-0.20
2022-12-11T15:51:01.165Z,-0.20
2022-12-11T15:53:29.445Z,-0.10
2022-12-11T15:55:58.449Z,-0.20
2022-12-11T15:58:27.287Z,-0.20
2022-12-11T16:00:57.774Z,-0.10
2022-12-11T16:03:27.888Z,-0.10
2022-12-11T16:05:56.220Z,-0.10
2022-12-11T16:08:25.367Z,0.00
2022-12-11T16:10:55.240Z,0.00
2022-12-11T16:13:23.594Z,0.00
2022-12-11T16:15:53.685Z,0.00
2022-12-11T16:18:24.581Z,0.00
2022-12-11T16:20:53.274Z,0.00
2022-12-11T16:23:21.681Z,0.00
2022-12-11T16:25:49.912Z,0.00
2022-12-11T16:28:20.748Z,-0.10
2022-12-11T16:30:49.654Z,-0.10
2022-12-11T16:33:18.252Z,-0.10
2022-12-11T16:35:47.862Z,-0.10
2022-12-11T16:38:16.166Z,-0.10
2022-12-11T16:40:45.500Z,-0.10
2022-12-11T16:43:13.768Z,-0.10
2022-12-11T16:45:42.127Z,-0.10
2022-12-11T16:48:10.587Z,-0.20
2022-12-11T16:50:41.201Z,-0.10
2022-12-11T16:53:13.279Z,-0.10
2022-12-11T16:55:42.391Z,0.00
2022-12-11T16:58:11.605Z,0.00
2022-12-11T17:00:40.024Z,0.00
2022-12-11T17:03:08.357Z,0.00
2022-12-11T17:05:36.591Z,-0.10
2022-12-11T17:08:05.031Z,-0.10
2022-12-11T17:10:34.666Z,-0.10
2022-12-11T17:13:02.987Z,-0.10
2022-12-11T17:15:31.327Z,0.00
2022-12-11T17:17:59.662Z,0.00
2022-12-11T17:20:27.927Z,0.00
2022-12-11T17:22:56.214Z,0.00
2022-12-11T17:25:24.625Z,0.00
2022-12-11T17:27:54.286Z,0.00
2022-12-11T17:30:22.618Z,0.00
2022-12-11T17:32:50.866Z,0.00
2022-12-11T17:35:19.369Z,0.00
2022-12-11T17:37:47.611Z,0.00
2022-12-11T17:40:16.042Z,0.10
2022-12-11T17:42:44.910Z,0.10
2022-12-11T17:45:14.728Z,0.20
2022-12-11T17:47:43.171Z,0.20
2022-12-11T17:50:11.585Z,0.20
2022-12-11T17:52:44.133Z,0.20
2022-12-11T17:55:13.324Z,0.20
2022-12-11T17:57:41.781Z,0.20
2022-12-11T18:00:11.711Z,0.20
2022-12-11T18:02:41.390Z,0.20
2022-12-11T18:05:10.036Z,0.10
2022-12-11T18:07:38.995Z,0.10
2022-12-11T18:10:08.158Z,0.10
2022-12-11T18:12:36.450Z,0.10
2022-12-11T18:15:05.497Z,0.00
2022-12-11T18:17:34.404Z,0.00
2022-12-11T18:20:04.352Z,0.00
2022-12-11T18:22:32.667Z,0.00
2022-12-11T18:25:06.422Z,0.00
2022-12-11T18:27:38.490Z,0.00
2022-12-11T18:30:08.163Z,0.00
2022-12-11T18:32:36.405Z,0.00
2022-12-11T18:35:07.084Z,-0.10
2022-12-11T18:37:35.521Z,-0.10
2022-12-11T18:40:03.897Z,0.00
2022-12-11T18:42:33.713Z,-0.10
2022-12-11T18:45:02.232Z,-0.10
2022-12-11T18:47:30.574Z,0.00
2022-12-11T18:50:03.889Z,0.00
2022-12-11T18:52:36.911Z,-0.10
2022-12-11T18:55:06.092Z,-0.10
2022-12-11T18:57:34.827Z,-0.10
2022-12-11T19:00:07.403Z,-0.10
2022-12-11T19:02:35.965Z,-0.10
2022-12-11T19:05:04.609Z,-0.10
2022-12-11T19:07:33.383Z,0.00
2022-12-11T19:10:03.296Z,-0.10
2022-12-11T19:12:31.902Z,-0.10
2022-12-11T19:15:00.512Z,-0.10
2022-12-11T19:17:28.818Z,-0.10
2022-12-11T19:19:57.265Z,-0.20
2022-12-11T19:22:25.612Z,-0.20
2022-12-11T19:24:53.966Z,-0.30
2022-12-11T19:27:23.595Z,-0.30
2022-12-11T19:29:51.882Z,-0.20
2022-12-11T19:32:20.134Z,-0.20
2022-12-11T19:34:48.698Z,-0.20
2022-12-11T19:37:16.978Z,-0.30
2022-12-11T19:39:45.243Z,-0.30
2022-12-11T19:42:13.617Z,-0.30
2022-12-11T19:44:43.292Z,-0.30
2022-12-11T19:47:11.607Z,-0.30
2022-12-11T19:49:40.012Z,-0.30
2022-12-11T19:52:08.332Z,-0.20
2022-12-11T19:54:36.807Z,-0.20
2022-12-11T19:57:05.364Z,-0.20
2022-12-11T19:59:33.868Z,-0.20
2022-12-11T20:02:03.625Z,-0.10
2022-12-11T20:04:31.956Z,-0.10
2022-12-11T20:07:00.247Z,-0.10
2022-12-11T20:09:28.471Z,-0.10
2022-12-11T20:11:56.835Z,-0.10
2022-12-11T20:14:26.429Z,0.00
2022-12-11T20:17:13.950Z,0.00
2022-12-11T20:19:44.508Z,0.00
2022-12-11T20:22:12.863Z,0.00
2022-12-11T20:24:42.250Z,0.00
2022-12-11T20:27:12.327Z,0.00
2022-12-11T20:29:40.714Z,0.10
2022-12-11T20:32:11.218Z,0.00
2022-12-11T20:34:39.784Z,0.10
2022-12-11T20:37:09.474Z,0.00
2022-12-11T20:39:38.041Z,0.10
2022-12-11T20:42:06.390Z,0.20
2022-12-11T20:44:34.636Z,0.10
2022-12-11T20:47:03.071Z,0.20
2022-12-11T20:49:31.309Z,0.20
2022-12-11T20:51:59.706Z,0.20
2022-12-11T20:54:29.345Z,0.30
2022-12-11T20:56:57.691Z,0.30
2022-12-11T20:59:26.768Z,0.30
2022-12-11T21:01:55.957Z,0.30
2022-12-11T21:04:24.578Z,0.30
2022-12-11T21:06:55.479Z,0.20
2022-12-11T21:09:25.251Z,0.20
2022-12-11T21:11:54.967Z,0.20
2022-12-11T21:14:24.081Z,0.10
2022-12-11T21:16:52.573Z,0.00
2022-12-11T21:19:21.214Z,-0.10
2022-12-11T21:21:49.689Z,-0.10
2022-12-11T21:24:19.359Z,-0.10
2022-12-11T21:26:47.796Z,-0.10
2022-12-11T21:29:17.761Z,-0.20
2022-12-11T21:31:46.124Z,-0.30
2022-12-11T21:34:16.652Z,-0.30
2022-12-11T21:36:48.045Z,-0.40
2022-12-11T21:39:16.762Z,-0.40
2022-12-11T21:41:45.282Z,-0.40
2022-12-11T21:47:03.841Z,-0.30
2022-12-11T21:49:32.299Z,-0.30
2022-12-11T21:52:00.547Z,-0.40
2022-12-11T21:54:29.800Z,-0.40
2022-12-11T21:56:58.453Z,-0.40
2022-12-11T21:59:26.972Z,-0.50
2022-12-11T22:01:55.640Z,-0.50
2022-12-11T22:04:25.527Z,-0.50
2022-12-11T22:06:53.904Z,-0.50
2022-12-11T22:09:22.173Z,-0.50
2022-12-11T22:11:55.055Z,-0.50
2022-12-11T22:14:26.442Z,-0.50
2022-12-11T22:16:54.738Z,-0.50
2022-12-11T22:19:27.851Z,-0.50
2022-12-11T22:21:59.020Z,-0.50
2022-12-11T22:24:27.269Z,-0.50
2022-12-11T22:26:55.490Z,-0.40
2022-12-11T22:29:23.866Z,-0.40
2022-12-11T22:31:52.838Z,-0.40
2022-12-11T22:34:21.075Z,-0.30
2022-12-11T22:36:50.690Z,-0.30
2022-12-11T22:39:18.936Z,-0.30
2022-12-11T22:41:47.188Z,-0.30
2022-12-11T22:44:16.646Z,-0.30
2022-12-11T22:46:49.635Z,-0.30
2022-12-11T22:49:18.723Z,-0.40
2022-12-11T22:51:47.025Z,-0.40
2022-12-11T22:54:16.650Z,-0.40
2022-12-11T22:56:45.274Z,-0.30
2022-12-11T22:59:13.724Z,-0.30
2022-12-11T23:01:41.973Z,-0.30
2022-12-11T23:04:10.213Z,-0.30
2022-12-11T23:06:38.580Z,-0.30
2022-12-11T23:09:07.224Z,-0.30
2022-12-11T23:11:38.414Z,-0.40
2022-12-11T23:14:07.629Z,-0.30
2022-12-11T23:16:35.993Z,-0.30
2022-12-11T23:19:04.656Z,-0.20
2022-12-11T23:21:33.038Z,-0.10
2022-12-11T23:24:01.445Z,-0.20
2022-12-11T23:26:30.205Z,-0.10
2022-12-11T23:29:00.329Z,-0.10
2022-12-11T23:31:30.074Z,-0.10
2022-12-11T23:33:58.545Z,-0.10
2022-12-11T23:36:26.986Z,-0.10
2022-12-11T23:38:55.397Z,-0.10
2022-12-11T23:41:23.799Z,-0.10
2022-12-11T23:43:52.116Z,-0.10
2022-12-11T23:46:23.753Z,-0.10
2022-12-11T23:48:52.814Z,-0.10
2022-12-11T23:51:21.932Z,-0.20
2022-12-11T23:53:50.272Z,-0.20
2022-12-11T23:56:21.070Z,-0.10
2022-12-11T23:58:49.333Z,-0.10
